Time;durP1;ratioP1;P1;durP2;ratioP2;P2;SDS_P1;SDS_P2;PMS_P1;PMS_P2;Temp;Humidity;BMP_temperature;BMP_pressure;BME280_temperature;BME280_humidity;BME280_pressure;Samples;Min_cycle;Max_cycle;Signal;HPM_P1;HPM_P2
2023/01/05 00:00:31;;;;;;;0.20;0.20;;;;;;;-144.22;100.00;60274.75;6272599;28;20232;-70
2023/01/05 00:03:34;;;;;;;0.53;0.30;;;;;;;-144.22;100.00;60274.75;6291204;28;20225;-72
2023/01/05 00:06:38;;;;;;;0.20;0.20;;;;;;;-144.22;100.00;60274.75;6291286;28;20230;-70
2023/01/05 00:09:40;;;;;;;0.93;0.50;;;;;;;-144.22;100.00;60274.75;6272513;28;20229;-71
2023/01/05 00:22:48;;;;;;;0.67;0.40;;;;;;;-144.22;100.00;60274.75;6287740;28;20236;-70
2023/01/05 00:25:50;;;;;;;0.33;0.33;;;;;;;-144.22;100.00;60274.75;6290434;28;20244;-71
2023/01/05 00:28:52;;;;;;;0.30;0.30;;;;;;;-144.22;100.00;60274.75;6289651;28;20312;-70
2023/01/05 00:31:54;;;;;;;1.37;0.47;;;;;;;-144.22;100.00;60274.75;6292139;28;20325;-70
2023/01/05 00:34:57;;;;;;;0.30;0.30;;;;;;;-144.22;100.00;60274.75;6255544;28;20230;-70
2023/01/05 00:37:59;;;;;;;0.30;0.30;;;;;;;-144.22;100.00;60274.75;6289703;28;20240;-70
2023/01/05 00:41:01;;;;;;;0.23;0.23;;;;;;;-144.22;100.00;60274.75;6269464;28;20731;-70
2023/01/05 00:44:03;;;;;;;0.43;0.37;;;;;;;-144.22;100.00;60274.75;6253843;28;20265;-69
2023/01/05 00:47:06;;;;;;;0.20;0.20;;;;;;;-144.22;100.00;60274.75;6273321;28;20367;-70
2023/01/05 00:50:09;;;;;;;0.17;0.17;;;;;;;-144.22;100.00;60274.75;6272574;28;20302;-70
2023/01/05 00:53:11;;;;;;;0.20;0.20;;;;;;;-144.22;100.00;60274.75;6275390;28;20375;-70
2023/01/05 00:56:14;;;;;;;0.83;0.30;;;;;;;-144.22;100.00;60274.75;6273569;28;20233;-70
2023/01/05 00:59:17;;;;;;;0.30;0.10;;;;;;;-144.22;100.00;60274.75;6271116;28;20638;-70
2023/01/05 01:02:19;;;;;;;0.20;0.20;;;;;;;-144.22;100.00;60274.75;6268420;28;20306;-71
2023/01/05 01:05:22;;;;;;;0.20;0.10;;;;;;;-144.22;100.00;60274.75;6289259;28;20341;-70
2023/01/05 01:08:24;;;;;;;0.40;0.30;;;;;;;-144.22;100.00;60274.75;6269735;28;20217;-70
2023/01/05 01:11:26;;;;;;;0.20;0.20;;;;;;;-144.22;100.00;60274.75;6269599;28;20319;-70
2023/01/05 01:14:28;;;;;;;0.20;0.20;;;;;;;-144.22;100.00;60274.75;6289234;28;20314;-71
2023/01/05 01:17:31;;;;;;;0.20;0.20;;;;;;;-144.22;100.00;60274.75;6266971;28;20310;-71
2023/01/05 01:20:33;;;;;;;0.37;0.30;;;;;;;-144.22;100.00;60274.75;6272293;28;20245;-70
2023/01/05 01:23:38;;;;;;;1.10;0.20;;;;;;;-144.22;100.00;60274.75;6259530;28;20237;-70
2023/01/05 01:26:41;;;;;;;0.20;0.20;;;;;;;-144.22;100.00;60274.75;6289029;28;20293;-69
2023/01/05 01:29:43;;;;;;;0.40;0.20;;;;;;;-144.22;100.00;60274.75;6276015;28;20229;-70
2023/01/05 01:32:45;;;;;;;0.30;0.20;;;;;;;-144.22;100.00;60274.75;6279563;28;20704;-71
2023/01/05 01:35:47;;;;;;;0.30;0.30;;;;;;;-144.22;100.00;60274.75;6293938;28;20303;-70
2023/01/05 01:38:49;;;;;;;0.10;0.10;;;;;;;-144.22;100.00;60274.75;6291244;28;20247;-70
2023/01/05 01:41:52;;;;;;;0.43;0.20;;;;;;;-144.22;100.00;60274.75;6291421;28;20221;-72
2023/01/05 01:44:57;;;;;;;0.10;0.10;;;;;;;-144.22;100.00;60274.75;6275456;28;20237;-70
2023/01/05 01:48:04;;;;;;;0.10;0.10;;;;;;;-144.22;100.00;60274.75;6279058;28;20236;-69
2023/01/05 01:51:16;;;;;;;0.20;0.20;;;;;;;-144.22;100.00;60274.75;6294068;28;20233;-70
2023/01/05 01:54:18;;;;;;;0.20;0.20;;;;;;;-144.22;100.00;60274.75;6274149;28;20211;-69
2023/01/05 01:57:21;;;;;;;0.20;0.20;;;;;;;-144.22;100.00;60274.75;6263262;28;20221;-70
2023/01/05 02:00:24;;;;;;;0.10;0.10;;;;;;;-144.22;100.00;60274.75;6275143;28;20869;-70
2023/01/05 02:03:28;;;;;;;1.23;0.37;;;;;;;-144.22;100.00;60274.75;6292803;28;20232;-70
2023/01/05 02:06:30;;;;;;;0.10;0.10;;;;;;;-144.22;100.00;60274.75;6275989;28;20264;-70
2023/01/05 02:09:32;;;;;;;0.10;0.10;;;;;;;-144.22;100.00;60274.75;6293309;28;20589;-70
2023/01/05 02:12:49;;;;;;;0.10;0.10;;;;;;;-144.22;100.00;60274.75;6262182;28;20434;-69
2023/01/05 02:16:10;;;;;;;0.10;0.10;;;;;;;-144.22;100.00;60274.75;6292828;28;20268;-70
2023/01/05 02:19:18;;;;;;;0.10;0.10;;;;;;;-144.22;100.00;60274.75;6275819;28;20594;-69
2023/01/05 02:22:48;;;;;;;0.10;0.10;;;;;;;-144.22;100.00;60274.75;6296120;28;20328;-70
2023/01/05 02:26:34;;;;;;;0.50;0.10;;;;;;;-144.22;100.00;60274.75;6292595;28;20254;-70
2023/01/05 02:30:13;;;;;;;0.20;0.20;;;;;;;-144.22;100.00;60274.75;6274699;28;20234;-70
2023/01/05 02:33:37;;;;;;;0.20;0.20;;;;;;;-144.22;100.00;60274.75;6274540;28;20225;-70
2023/01/05 02:36:52;;;;;;;0.10;0.10;;;;;;;-144.22;100.00;60274.75;6273396;28;20705;-69
2023/01/05 02:40:09;;;;;;;0.20;0.20;;;;;;;-144.22;100.00;60274.75;6272878;28;20698;-70
2023/01/05 02:43:19;;;;;;;0.77;0.47;;;;;;;-144.22;100.00;60274.75;6293013;28;20222;-70
2023/01/05 02:46:21;;;;;;;1.20;0.20;;;;;;;-144.22;100.00;60274.75;6275332;28;20273;-70
2023/01/05 02:49:24;;;;;;;0.13;0.13;;;;;;;-144.22;100.00;60274.75;6280465;28;20272;-70
2023/01/05 02:52:26;;;;;;;0.20;0.20;;;;;;;-144.22;100.00;60274.75;6274886;28;20726;-70
2023/01/05 02:55:37;;;;;;;0.13;0.13;;;;;;;-144.22;100.00;60274.75;6291573;28;20234;-70
2023/01/05 02:58:47;;;;;;;0.40;0.20;;;;;;;-144.22;100.00;60274.75;6274342;28;20226;-69
2023/01/05 03:01:59;;;;;;;0.20;0.20;;;;;;;-144.22;100.00;60274.75;6291249;28;20272;-70
2023/01/05 03:05:15;;;;;;;0.47;0.20;;;;;;;-144.22;100.00;60274.75;6294101;28;20321;-70
2023/01/05 03:08:24;;;;;;;0.30;0.30;;;;;;;-144.22;100.00;60274.75;6275664;28;20226;-69
2023/01/05 03:15:11;;;;;;;0.20;0.20;;;;;;;-144.22;100.00;60274.75;6273351;28;20241;-70
2023/01/05 03:18:18;;;;;;;0.30;0.30;;;;;;;-144.22;100.00;60274.75;6273277;28;20250;-70
2023/01/05 03:21:26;;;;;;;0.10;0.10;;;;;;;-144.22;100.00;60274.75;6271845;28;20236;-69
2023/01/05 03:38:41;;;;;;;0.93;0.30;;;;;;;-144.22;100.00;60274.75;6274198;28;20244;-69
2023/01/05 03:41:43;;;;;;;0.23;0.23;;;;;;;-144.22;100.00;60274.75;6272106;28;20806;-70
2023/01/05 03:44:47;;;;;;;0.20;0.20;;;;;;;-144.22;100.00;60274.75;6273196;28;20779;-70
2023/01/05 03:47:51;;;;;;;0.13;0.13;;;;;;;-144.22;100.00;60274.75;6254198;28;20386;-70
2023/01/05 03:50:58;;;;;;;0.40;0.30;;;;;;;-144.22;100.00;60274.75;6293005;28;20581;-69
2023/01/05 03:54:01;;;;;;;0.20;0.20;;;;;;;-144.22;100.00;60274.75;6267406;28;20238;-70
2023/01/05 03:57:06;;;;;;;0.40;0.40;;;;;;;10.38;100.00;97636.66;6272960;28;20317;-69
2023/01/05 04:00:09;;;;;;;1.00;0.20;;;;;;;-144.22;100.00;60274.75;6272892;28;20312;-70
2023/01/05 04:03:18;;;;;;;1.10;0.30;;;;;;;10.09;100.00;79094.97;6274301;28;20222;-70
2023/01/05 04:06:22;;;;;;;0.47;0.20;;;;;;;-144.22;100.00;60274.75;6290696;28;20367;-69
2023/01/05 04:09:24;;;;;;;0.27;0.27;;;;;;;10.22;100.00;60274.75;6275594;28;20246;-69
2023/01/05 04:12:26;;;;;;;0.30;0.20;;;;;;;-144.22;100.00;60274.75;6256492;28;20229;-69
2023/01/05 04:15:28;;;;;;;0.20;0.20;;;;;;;-144.22;100.00;60274.75;6293366;28;20232;-70
2023/01/05 04:18:32;;;;;;;0.70;0.23;;;;;;;-144.22;100.00;60274.75;6273005;28;20239;-70
2023/01/05 04:21:34;;;;;;;0.30;0.20;;;;;;;-144.22;100.00;60274.75;6272957;28;20233;-69
2023/01/05 04:24:38;;;;;;;0.50;0.10;;;;;;;10.13;100.00;60274.75;6289559;28;22330;-70
2023/01/05 04:27:40;;;;;;;0.20;0.20;;;;;;;-144.22;100.00;60274.75;6275978;28;20225;-70
2023/01/05 04:30:43;;;;;;;0.13;0.13;;;;;;;-144.22;100.00;60274.75;6270952;28;20222;-70
2023/01/05 04:33:45;;;;;;;0.27;0.20;;;;;;;-144.22;100.00;60274.75;6281524;28;20256;-69
2023/01/05 04:36:51;;;;;;;0.63;0.23;;;;;;;10.06;100.00;60274.75;6271798;28;20229;-69
2023/01/05 04:39:55;;;;;;;0.20;0.20;;;;;;;-144.22;100.00;60274.75;6290181;28;20240;-70
2023/01/05 04:42:59;;;;;;;0.23;0.20;;;;;;;-144.22;100.00;60274.75;6272141;28;20239;-70
2023/01/05 04:46:01;;;;;;;0.20;0.20;;;;;;;-144.22;100.00;60274.75;6292283;28;20280;-70
2023/01/05 04:49:04;;;;;;;0.20;0.20;;;;;;;-144.22;100.00;60274.75;6272926;28;20649;-70
2023/01/05 04:52:07;;;;;;;0.20;0.20;;;;;;;9.97;100.00;60274.75;6279126;28;20593;-69
2023/01/05 04:55:09;;;;;;;0.10;0.10;;;;;;;-144.22;100.00;60274.75;6290492;28;20309;-69
2023/01/05 04:58:12;;;;;;;0.20;0.20;;;;;;;-144.22;100.00;60274.75;6271049;28;20228;-69
2023/01/05 05:01:15;;;;;;;0.10;0.10;;;;;;;11.36;100.00;60274.75;6270396;28;20242;-69
2023/01/05 05:04:22;;;;;;;0.20;0.20;;;;;;;-144.22;100.00;60274.75;6273887;28;20232;-69
2023/01/05 05:07:25;;;;;;;0.40;0.20;;;;;;;-144.22;100.00;60274.75;6288129;28;20262;-69
2023/01/05 05:10:27;;;;;;;0.10;0.10;;;;;;;-144.22;100.00;60274.75;6289167;28;20324;-70
2023/01/05 05:13:30;;;;;;;0.67;0.20;;;;;;;-144.22;100.00;60274.75;6273805;28;20601;-70
2023/01/05 05:16:34;;;;;;;0.50;0.20;;;;;;;10.26;100.00;60274.75;6271126;28;20255;-69
2023/01/05 05:19:38;;;;;;;0.20;0.20;;;;;;;-144.22;100.00;60274.75;6271371;28;20239;-69
2023/01/05 05:22:42;;;;;;;0.37;0.20;;;;;;;-144.22;100.00;60274.75;6288123;28;20383;-70
2023/01/05 05:25:51;;;;;;;0.23;0.23;;;;;;;10.16;100.00;60274.75;6285643;28;20229;-69
2023/01/05 05:28:57;;;;;;;1.50;0.23;;;;;;;-144.22;100.00;60274.75;6277375;28;20316;-69
2023/01/05 05:32:00;;;;;;;0.30;0.20;;;;;;;9.90;100.00;60274.75;6294492;28;20222;-69
2023/01/05 05:35:02;;;;;;;0.27;0.10;;;;;;;9.93;100.00;60274.75;6289660;28;20236;-69
2023/01/05 05:38:04;;;;;;;0.17;0.17;;;;;;;9.90;100.00;60274.75;6287723;28;20613;-69
2023/01/05 05:41:06;;;;;;;0.20;0.20;;;;;;;-144.22;100.00;60274.75;6289944;28;20265;-69
2023/01/05 05:44:08;;;;;;;0.20;0.20;;;;;;;-144.22;100.00;60274.75;6287205;28;20597;-69
2023/01/05 05:47:10;;;;;;;0.10;0.10;;;;;;;10.10;100.00;60274.75;6271705;28;20358;-70
2023/01/05 05:50:12;;;;;;;0.50;0.27;;;;;;;-144.22;100.00;60274.75;6289417;28;20244;-70
2023/01/05 05:53:15;;;;;;;0.10;0.10;;;;;;;-144.22;100.00;60274.75;6288832;28;20264;-69
2023/01/05 05:56:17;;;;;;;0.20;0.20;;;;;;;10.11;100.00;60274.75;6272849;28;20643;-69
2023/01/05 05:59:19;;;;;;;0.10;0.10;;;;;;;-144.22;100.00;60274.75;6266872;28;20237;-70
2023/01/05 06:02:21;;;;;;;0.20;0.20;;;;;;;10.05;100.00;60274.75;6274112;28;20618;-69
2023/01/05 06:05:23;;;;;;;0.30;0.10;;;;;;;-144.22;100.00;60274.75;6272358;28;20231;-68
2023/01/05 06:08:28;;;;;;;0.47;0.20;;;;;;;10.02;100.00;60274.75;6269679;28;20241;-69
2023/01/05 06:11:30;;;;;;;0.10;0.10;;;;;;;-144.22;100.00;60274.75;6285880;28;20229;-69
2023/01/05 06:14:33;;;;;;;0.33;0.20;;;;;;;10.14;100.00;79101.81;6288032;28;20225;-69
2023/01/05 06:17:35;;;;;;;0.10;0.10;;;;;;;-144.22;100.00;60274.75;6263064;28;20398;-69
2023/01/05 06:20:37;;;;;;;0.20;0.10;;;;;;;-144.22;100.00;60274.75;6292967;28;20364;-69
2023/01/05 06:23:39;;;;;;;0.20;0.20;;;;;;;10.28;100.00;60274.75;6274247;28;20226;-70
2023/01/05 06:26:41;;;;;;;0.20;0.20;;;;;;;-144.22;100.00;60274.75;6292744;28;20667;-69
2023/01/05 06:29:43;;;;;;;0.10;0.10;;;;;;;-144.22;100.00;60274.75;6278891;28;20232;-69
2023/01/05 06:32:45;;;;;;;0.20;0.20;;;;;;;10.26;100.00;60274.75;6292679;28;20262;-70
2023/01/05 06:35:47;;;;;;;0.20;0.20;;;;;;;-144.22;100.00;60274.75;6275823;28;20307;-69
2023/01/05 06:38:49;;;;;;;0.53;0.20;;;;;;;-144.22;100.00;60274.75;6295126;28;20279;-69
2023/01/05 06:41:52;;;;;;;0.97;0.23;;;;;;;10.37;100.00;60274.75;6294333;28;20306;-69
2023/01/05 06:44:54;;;;;;;0.20;0.20;;;;;;;-144.22;100.00;60274.75;6278427;28;20714;-70
2023/01/05 06:47:57;;;;;;;0.20;0.20;;;;;;;10.26;100.00;60274.75;6294021;28;20976;-70
2023/01/05 06:51:00;;;;;;;0.30;0.30;;;;;;;-144.22;100.00;60274.75;6294023;28;20234;-69
2023/01/05 06:54:02;;;;;;;1.30;0.23;;;;;;;-144.22;100.00;60274.75;6292262;28;20232;-69
2023/01/05 06:57:05;;;;;;;0.40;0.20;;;;;;;188.01;100.00;60274.75;6293865;28;20734;-69
2023/01/05 07:00:10;;;;;;;0.40;0.30;;;;;;;-144.22;100.00;60274.75;6290396;28;20231;-69
2023/01/05 07:03:12;;;;;;;0.20;0.20;;;;;;;10.40;100.00;79135.69;6293472;28;20309;-70
2023/01/05 07:06:15;;;;;;;0.20;0.20;;;;;;;-144.22;100.00;60274.75;6295438;28;20209;-69
2023/01/05 07:09:17;;;;;;;0.30;0.30;;;;;;;10.33;100.00;60274.75;6271419;28;20276;-68
2023/01/05 07:12:20;;;;;;;0.20;0.20;;;;;;;-144.22;100.00;60274.75;6258357;28;20213;-69
2023/01/05 07:15:22;;;;;;;0.50;0.30;;;;;;;-144.22;100.00;60274.75;6294758;28;20291;-70
2023/01/05 07:18:24;;;;;;;0.20;0.20;;;;;;;10.42;100.00;60274.75;6296904;28;20229;-69
2023/01/05 07:21:26;;;;;;;0.20;0.20;;;;;;;-144.22;100.00;60274.75;6280048;28;20262;-70
2023/01/05 07:24:28;;;;;;;0.20;0.20;;;;;;;10.67;100.00;60274.75;6290484;28;20313;-69
2023/01/05 07:27:30;;;;;;;1.10;0.27;;;;;;;-144.22;100.00;60274.75;6291791;28;20696;-70
2023/01/05 07:30:32;;;;;;;0.20;0.20;;;;;;;10.47;100.00;60274.75;6290718;28;20224;-69
2023/01/05 07:33:35;;;;;;;0.20;0.20;;;;;;;-144.22;100.00;60274.75;6294669;28;20236;-69
2023/01/05 07:36:41;;;;;;;0.23;0.23;;;;;;;-144.22;100.00;60274.75;6274755;28;20229;-69
2023/01/05 07:39:44;;;;;;;0.40;0.20;;;;;;;10.87;100.00;60274.75;6291206;28;20615;-69
2023/01/05 07:42:51;;;;;;;1.03;0.20;;;;;;;-144.22;100.00;60274.75;6272028;28;20221;-69
2023/01/05 07:46:01;;;;;;;0.20;0.20;;;;;;;-144.22;100.00;60274.75;6262695;28;20229;-70
2023/01/05 07:49:03;;;;;;;0.40;0.30;;;;;;;11.36;100.00;60274.75;6292892;28;20244;-71
2023/01/05 07:52:05;;;;;;;0.47;0.40;;;;;;;-144.22;100.00;60274.75;6291016;28;20229;-69
2023/01/05 07:55:08;;;;;;;0.60;0.30;;;;;;;12.01;100.00;60274.75;6286384;28;20770;-69
2023/01/05 07:58:10;;;;;;;1.37;0.20;;;;;;;-144.22;100.00;60274.75;6289833;28;20231;-70
2023/01/05 08:01:13;;;;;;;0.20;0.20;;;;;;;-144.22;100.00;60274.75;6290301;28;20325;-69
2023/01/05 08:04:16;;;;;;;0.20;0.20;;;;;;;-144.22;100.00;60274.75;6272924;28;20233;-69
2023/01/05 08:07:18;;;;;;;0.10;0.10;;;;;;;-144.22;100.00;60274.75;6290001;28;20230;-70
2023/01/05 08:10:29;;;;;;;0.20;0.20;;;;;;;-144.22;100.00;60274.75;6272526;28;20238;-69
2023/01/05 08:16:51;;;;;;;0.20;0.20;;;;;;;-144.22;100.00;60274.75;6289777;28;20230;-69
2023/01/05 08:19:53;;;;;;;0.20;0.20;;;;;;;-144.22;100.00;60274.75;6291600;28;20787;-70
2023/01/05 08:22:55;;;;;;;0.20;0.20;;;;;;;-144.22;100.00;60274.75;6271054;28;20225;-69
2023/01/05 08:26:04;;;;;;;0.30;0.30;;;;;;;-144.22;100.00;60274.75;6267515;28;20275;-69
2023/01/05 08:29:06;;;;;;;0.20;0.17;;;;;;;-144.22;100.00;60274.75;6287988;28;20700;-68
2023/01/05 08:32:08;;;;;;;0.10;0.10;;;;;;;-144.22;100.00;60274.75;6291544;28;20268;-69
2023/01/05 08:35:10;;;;;;;0.10;0.10;;;;;;;-144.22;100.00;60274.75;6271087;28;20229;-69
2023/01/05 08:38:12;;;;;;;3.13;0.50;;;;;;;-144.22;100.00;60274.75;6286268;28;20701;-69
2023/01/05 08:41:27;;;;;;;0.60;0.37;;;;;;;-144.22;100.00;60274.75;6272478;28;20234;-69
2023/01/05 08:44:29;;;;;;;0.20;0.20;;;;;;;-144.22;100.00;60274.75;6291112;28;20230;-70
2023/01/05 08:47:31;;;;;;;0.10;0.10;;;;;;;-144.22;100.00;60274.75;6291866;28;20237;-69
2023/01/05 08:50:35;;;;;;;0.20;0.20;;;;;;;-144.22;100.00;60274.75;6271302;28;20311;-69
2023/01/05 08:53:37;;;;;;;0.20;0.20;;;;;;;-144.22;100.00;60274.75;6291343;28;20256;-69
2023/01/05 08:56:39;;;;;;;0.17;0.17;;;;;;;-144.22;100.00;60274.75;6288989;28;20240;-69
2023/01/05 08:59:41;;;;;;;0.20;0.20;;;;;;;-144.22;100.00;60274.75;6289382;28;20260;-68
2023/01/05 09:02:43;;;;;;;0.60;0.30;;;;;;;-144.22;100.00;60274.75;6288941;28;20551;-69
2023/01/05 09:05:46;;;;;;;1.70;0.20;;;;;;;188.01;100.00;60274.75;6272696;28;20243;-69
2023/01/05 09:08:48;;;;;;;0.13;0.13;;;;;;;-144.22;100.00;60274.75;6270660;28;20701;-69
2023/01/05 09:11:50;;;;;;;0.17;0.17;;;;;;;-144.22;100.00;60274.75;6290374;28;20291;-69
2023/01/05 09:14:53;;;;;;;0.10;0.10;;;;;;;-144.22;100.00;60274.75;6271150;28;20345;-70
2023/01/05 09:17:55;;;;;;;0.20;0.20;;;;;;;-144.22;100.00;60274.75;6291217;28;20599;-69
2023/01/05 09:20:57;;;;;;;0.10;0.10;;;;;;;-144.22;100.00;60274.75;6290097;28;20737;-69
2023/01/05 09:24:00;;;;;;;0.83;0.30;;;;;;;-144.22;100.00;60274.75;6276100;28;20240;-69
2023/01/05 09:27:04;;;;;;;0.33;0.33;;;;;;;11.93;100.00;60274.75;6287224;28;20226;-68
2023/01/05 09:30:07;;;;;;;0.20;0.20;;;;;;;-144.22;100.00;60274.75;6289249;28;20364;-69
2023/01/05 09:33:09;;;;;;;2.07;0.20;;;;;;;-144.22;100.00;60274.75;6290973;28;20614;-68
2023/01/05 09:36:12;;;;;;;1.30;0.40;;;;;;;-144.22;100.00;60274.75;6291928;28;20292;-69
2023/01/05 09:39:14;;;;;;;0.87;0.33;;;;;;;-144.22;100.00;60274.75;6285993;28;20217;-69
2023/01/05 09:42:20;;;;;;;0.70;0.10;;;;;;;-144.22;100.00;60274.75;6253202;28;20249;-69
2023/01/05 09:45:27;;;;;;;0.37;0.20;;;;;;;16.55;100.00;60274.75;6287622;28;20326;-71
2023/01/05 09:48:38;;;;;;;0.23;0.23;;;;;;;-144.22;100.00;60274.75;6270560;28;20224;-69
2023/01/05 09:51:41;;;;;;;0.60;0.20;;;;;;;-144.22;100.00;60274.75;6293061;28;20222;-69
2023/01/05 09:54:43;;;;;;;0.77;0.23;;;;;;;-144.22;100.00;60274.75;6292635;28;20591;-69
2023/01/05 09:58:04;;;;;;;0.20;0.20;;;;;;;-144.22;100.00;60274.75;6289162;28;20368;-69
2023/01/05 10:01:13;;;;;;;0.20;0.20;;;;;;;-144.22;100.00;60274.75;6292617;28;20230;-70
2023/01/05 10:04:19;;;;;;;0.20;0.20;;;;;;;-144.22;100.00;60274.75;6294096;28;20230;-69
2023/01/05 10:07:36;;;;;;;1.50;0.20;;;;;;;-144.22;100.00;60274.75;6275916;28;20222;-69
2023/01/05 10:14:17;;;;;;;0.20;0.20;;;;;;;-144.22;100.00;60274.75;6236105;28;20237;-69
2023/01/05 10:17:21;;;;;;;0.20;0.20;;;;;;;-144.22;100.00;60274.75;6292803;28;20345;-69
2023/01/05 10:21:02;;;;;;;0.63;0.30;;;;;;;-144.22;100.00;60274.75;6292090;28;20231;-69
2023/01/05 10:24:20;;;;;;;0.20;0.20;;;;;;;-144.22;100.00;60274.75;6292527;28;20312;-70
2023/01/05 10:27:31;;;;;;;0.20;0.20;;;;;;;-144.22;100.00;60274.75;6273203;28;20804;-69
2023/01/05 10:30:39;;;;;;;1.23;0.27;;;;;;;-144.22;100.00;60274.75;6288656;28;20237;-69
2023/01/05 10:33:48;;;;;;;0.10;0.10;;;;;;;-144.22;100.00;60274.75;6274180;28;20292;-69
2023/01/05 10:37:00;;;;;;;0.20;0.20;;;;;;;-144.22;100.00;60274.75;6289485;28;20650;-68
2023/01/05 10:40:42;;;;;;;0.20;0.20;;;;;;;-144.22;100.00;60274.75;6291203;28;20712;-69
2023/01/05 10:43:47;;;;;;;0.43;0.30;;;;;;;-144.22;100.00;60274.75;6292173;28;20225;-69
2023/01/05 10:46:49;;;;;;;0.20;0.20;;;;;;;-144.22;100.00;60274.75;6293263;28;20230;-69
2023/01/05 10:49:53;;;;;;;0.20;0.20;;;;;;;-144.22;100.00;60274.75;6293694;28;20587;-70
2023/01/05 10:52:57;;;;;;;0.60;0.23;;;;;;;-144.22;100.00;60274.75;6289628;28;20253;-69
2023/01/05 10:56:09;;;;;;;0.20;0.20;;;;;;;188.01;100.00;60274.75;6256172;28;20472;-69
2023/01/05 10:59:14;;;;;;;0.80;0.20;;;;;;;-144.22;100.00;60274.75;6274249;28;20226;-70
2023/01/05 11:02:18;;;;;;;0.77;0.30;;;;;;;-144.22;100.00;60274.75;6292999;28;20250;-69
2023/01/05 11:05:33;;;;;;;0.83;0.30;;;;;;;-144.22;100.00;60274.75;6273464;28;20570;-69
2023/01/05 11:08:36;;;;;;;0.33;0.23;;;;;;;-144.22;100.00;60274.75;6273619;28;20328;-69
2023/01/05 11:11:39;;;;;;;0.40;0.40;;;;;;;-144.22;100.00;60274.75;6291446;28;20239;-70
2023/01/05 11:14:43;;;;;;;0.60;0.30;;;;;;;-144.22;100.00;60274.75;6293344;28;21086;-69
2023/01/05 11:17:45;;;;;;;0.30;0.30;;;;;;;-144.22;100.00;60274.75;6287481;28;20739;-69
2023/01/05 11:21:10;;;;;;;0.77;0.40;;;;;;;-144.22;100.00;60274.75;6261434;28;20256;-70
2023/01/05 11:24:35;;;;;;;0.57;0.30;;;;;;;-144.22;100.00;60274.75;6281919;28;20230;-70
2023/01/05 11:27:38;;;;;;;0.70;0.40;;;;;;;188.01;100.00;60274.75;6263930;28;20222;-69
2023/01/05 11:30:58;;;;;;;0.53;0.40;;;;;;;-144.22;100.00;60274.75;6270941;28;20253;-69
2023/01/05 11:34:36;;;;;;;0.33;0.30;;;;;;;-144.22;100.00;60274.75;6270090;28;20713;-69
2023/01/05 11:37:44;;;;;;;1.60;0.20;;;;;;;-144.22;100.00;60274.75;6264319;28;20231;-71
2023/01/05 11:40:46;;;;;;;0.93;0.30;;;;;;;-144.22;100.00;60274.75;6264354;28;20603;-69
2023/01/05 11:43:49;;;;;;;0.40;0.30;;;;;;;16.55;100.00;60274.75;6264219;28;20321;-69
2023/01/05 11:46:52;;;;;;;0.40;0.40;;;;;;;-144.22;100.00;60274.75;6264711;28;20841;-69
2023/01/05 11:50:06;;;;;;;0.67;0.43;;;;;;;-144.22;100.00;60274.75;6272636;28;20218;-70
2023/01/05 11:53:32;;;;;;;0.53;0.30;;;;;;;-144.22;100.00;60274.75;6263221;28;20238;-69
2023/01/05 11:56:34;;;;;;;0.40;0.20;;;;;;;-144.22;100.00;60274.75;6264530;28;20381;-69
2023/01/05 11:59:37;;;;;;;0.43;0.33;;;;;;;12.83;100.00;60274.75;6269106;28;20218;-69
2023/01/05 12:03:03;;;;;;;0.30;0.30;;;;;;;-144.22;100.00;60274.75;6266368;28;20226;-70
2023/01/05 12:06:25;;;;;;;0.30;0.30;;;;;;;-144.22;100.00;60274.75;6266814;28;20278;-70
2023/01/05 12:09:40;;;;;;;0.30;0.30;;;;;;;-144.22;100.00;60274.75;6265263;28;20240;-70
2023/01/05 12:12:51;;;;;;;0.40;0.30;;;;;;;-144.22;100.00;60274.75;6265563;28;20239;-69
2023/01/05 12:16:04;;;;;;;0.43;0.30;;;;;;;-144.22;100.00;60274.75;6264533;28;20268;-68
2023/01/05 12:19:14;;;;;;;0.30;0.30;;;;;;;-144.22;100.00;60274.75;6264014;28;20266;-70
2023/01/05 12:22:54;;;;;;;0.67;0.40;;;;;;;-144.22;100.00;60274.75;6265239;28;20238;-69
2023/01/05 12:26:23;;;;;;;0.53;0.40;;;;;;;-144.22;100.00;60274.75;6265569;28;20722;-70
2023/01/05 12:29:37;;;;;;;4.30;0.80;;;;;;;-144.22;100.00;60274.75;6288798;28;20253;-69
2023/01/05 12:33:12;;;;;;;0.43;0.40;;;;;;;-144.22;100.00;60274.75;6291986;28;20230;-69
2023/01/05 12:36:44;;;;;;;0.93;0.30;;;;;;;-144.22;100.00;60274.75;6288726;28;20571;-69
2023/01/05 12:40:01;;;;;;;0.80;0.40;;;;;;;-144.22;100.00;60274.75;6271455;28;20234;-69
2023/01/05 12:43:08;;;;;;;1.53;0.47;;;;;;;13.10;100.00;60274.75;6289030;28;20633;-68
2023/01/05 12:46:41;;;;;;;1.57;0.40;;;;;;;-144.22;100.00;60274.75;6273332;28;20260;-69
2023/01/05 12:50:05;;;;;;;1.53;0.50;;;;;;;-144.22;100.00;60274.75;6292295;28;20237;-68
2023/01/05 12:53:36;;;;;;;1.00;0.50;;;;;;;-144.22;100.00;60274.75;6265897;28;20230;-68
2023/01/05 12:57:11;;;;;;;0.90;0.40;;;;;;;-144.22;100.00;60274.75;6288392;28;20823;-69
2023/01/05 13:00:20;;;;;;;0.87;0.40;;;;;;;-144.22;100.00;60274.75;6288700;28;20242;-69
2023/01/05 13:03:44;;;;;;;2.10;0.50;;;;;;;-144.22;100.00;60274.75;6287482;28;20236;-68
2023/01/05 13:06:50;;;;;;;0.83;0.40;;;;;;;-144.22;100.00;60274.75;6272710;28;20237;-70
2023/01/05 13:10:02;;;;;;;1.60;0.43;;;;;;;-144.22;100.00;60274.75;6288838;28;20482;-68
2023/01/05 13:13:12;;;;;;;2.03;0.60;;;;;;;-144.22;100.00;60274.75;6270309;28;20257;-68
2023/01/05 13:16:35;;;;;;;1.00;0.50;;;;;;;-144.22;100.00;60274.75;6274497;28;20233;-68
2023/01/05 13:19:46;;;;;;;3.43;0.83;;;;;;;-144.22;100.00;60274.75;6285431;28;20323;-68
2023/01/05 13:22:52;;;;;;;0.87;0.50;;;;;;;-144.22;100.00;60274.75;6254769;28;20299;-69
2023/01/05 13:26:05;;;;;;;3.43;0.80;;;;;;;-144.22;100.00;60274.75;6270089;28;20223;-68
2023/01/05 13:29:23;;;;;;;0.77;0.57;;;;;;;13.96;100.00;60274.75;6293037;28;20226;-68
2023/01/05 13:32:59;;;;;;;2.00;0.77;;;;;;;-144.22;100.00;60274.75;6278906;28;20230;-68
2023/01/05 13:36:08;;;;;;;2.33;0.73;;;;;;;-144.22;100.00;60274.75;6292981;28;20678;-67
2023/01/05 13:39:25;;;;;;;2.30;0.90;;;;;;;-144.22;100.00;60274.75;6293950;28;20230;-69
2023/01/05 13:42:33;;;;;;;4.70;0.90;;;;;;;-144.22;100.00;60274.75;6293125;28;20368;-67
2023/01/05 13:46:13;;;;;;;2.33;0.90;;;;;;;-144.22;100.00;60274.75;6282035;28;20229;-68
2023/01/05 13:49:22;;;;;;;4.13;0.83;;;;;;;-144.22;100.00;60274.75;6295797;28;20229;-68
2023/01/05 13:52:48;;;;;;;1.70;0.80;;;;;;;-144.22;100.00;60274.75;6293522;28;20230;-68
2023/01/05 13:55:55;;;;;;;3.17;0.80;;;;;;;10.95;100.00;60274.75;6293183;28;20234;-68
2023/01/05 13:59:02;;;;;;;2.27;0.90;;;;;;;-144.22;100.00;60274.75;6274395;28;20235;-68
2023/01/05 14:02:28;;;;;;;2.00;0.97;;;;;;;-144.22;100.00;60274.75;6296022;28;20273;-68
2023/01/05 14:05:55;;;;;;;1.90;0.80;;;;;;;-144.22;100.00;60274.75;6294641;28;20716;-68
2023/01/05 14:09:06;;;;;;;1.60;0.80;;;;;;;-144.22;100.00;60274.75;6268639;28;20489;-68
2023/01/05 14:12:14;;;;;;;1.97;0.70;;;;;;;-144.22;100.00;60274.75;6295671;28;20221;-68
2023/01/05 14:15:27;;;;;;;3.97;1.00;;;;;;;10.71;100.00;60274.75;6290124;28;20684;-69
2023/01/05 14:18:50;;;;;;;2.37;1.00;;;;;;;-144.22;100.00;60274.75;6289135;28;20225;-67
2023/01/05 14:21:55;;;;;;;3.40;0.80;;;;;;;-144.22;100.00;60274.75;6274407;28;20379;-68
2023/01/05 14:24:57;;;;;;;3.73;0.80;;;;;;;-144.22;100.00;60274.75;6291919;28;20246;-68
2023/01/05 14:28:29;;;;;;;5.10;1.47;;;;;;;-144.22;100.00;60274.75;6290271;28;20724;-68
2023/01/05 14:31:35;;;;;;;2.70;1.30;;;;;;;188.01;100.00;60274.75;6275262;28;20229;-68
2023/01/05 14:34:46;;;;;;;4.97;1.50;;;;;;;-144.22;100.00;60274.75;6278518;28;20333;-68
2023/01/05 14:38:05;;;;;;;3.07;0.90;;;;;;;-144.22;100.00;60274.75;6293183;28;20245;-68
2023/01/05 14:41:15;;;;;;;2.13;1.10;;;;;;;-144.22;100.00;60274.75;6292812;28;20265;-68
2023/01/05 14:44:23;;;;;;;5.60;1.00;;;;;;;-144.22;100.00;60274.75;6292338;28;20308;-68
2023/01/05 14:47:35;;;;;;;3.20;1.07;;;;;;;10.06;100.00;60274.75;6292955;28;20225;-68
2023/01/05 14:50:41;;;;;;;3.67;1.50;;;;;;;-144.22;100.00;60274.75;6295657;28;20225;-68